LFGJLFSD

Guest
Details From LFGJ - Dole Tavaux
To LFSD - Dijon Longvic AB
Flight Number -
Tags generated
Created
Modified
Stats Distance 20 nm / 36 km
Max Altitude 0 ft / 0 m
Waypoints 3
Social Downloads 1
Likes 0
Share VATSIM

Download

Looking for another format? Having issues loading an existing format? Contact us
Advertisement - Login to hide

Notes

Basic altitude profile: - Ascent Rate: 2500ft/min - Ascent Speed: 250kts - Cruise Altitude: 35000ft - Cruise Speed: 420kts - Descent Rate: 1500ft/min - Descent Speed: 250kts

Route

LFGJ DJL LFSD

ID Type Via Altitude Latitude Longitude Leg Dist Tot Dist Heading (true) Name
O LFGJ APT - 0 ft / 0 m 47.03893˚ 5.42727˚ - 0 nm - Dole Tavaux
DJL VOR - 0 ft / 0 m 47.27078˚ 5.09733˚ 19 nm 19 nm 316° / 316° DIJON-LONGVIC VOR-DME
O LFSD APT - 0 ft / 0 m 47.26901˚ 5.09012˚ 0 nm 19 nm 250° / 250° Dijon Longvic AB

Altitude Profile

Advertisement - Login to hide

LFGJ

Details ICAO LFGJ (DLE)
Name Dole Tavaux
Region France
Timezone Europe/Paris (UTC+1.0)
Stats Elevation 645 ft / 197 m (AMSL)
Location 47.038933° 5.427265°
Runways 1
Magnetic Variation 1.544° E

METAR

LFGJ 121400Z AUTO 23006KT CAVOK 06/01 Q1015 NOSIG

Decode

TAF

Not found

Departure Runways

ID Width Length Bearing (true) Bearing (mag) Surface Threshold Offset Overrun Length
05 148 ft / 45 m 7,306 ft / 2,227 m 54.25° 52.71° Asphalt 0 ft / 0 m 0 ft / 0 m
23 148 ft / 45 m 7,306 ft / 2,227 m 234.27° 232.73° Asphalt 0 ft / 0 m 1,214 ft / 370 m

LFSD

Details ICAO LFSD (DIJ)
Name Dijon Longvic AB
Region France
Timezone Europe/Paris (UTC+1.0)
Stats Elevation 726 ft / 221 m (AMSL)
Location 47.269011° 5.090116°
Runways 2
Magnetic Variation 1.447° E

METAR

LFSD 121400Z AUTO 26007KT 9999 FEW046 06/M03 Q1014

Decode

TAF

Not found

Destination Runways

ID Width Length Bearing (true) Bearing (mag) Surface Threshold Offset Overrun Length
02 118 ft / 36 m 6,054 ft / 1,845 m 15.20° 13.75° Asphalt 0 ft / 0 m 328 ft / 100 m
18 148 ft / 45 m 7,877 ft / 2,401 m 175.00° 173.55° Asphalt 0 ft / 0 m 1,385 ft / 422 m
20 118 ft / 36 m 6,054 ft / 1,845 m 195.20° 193.75° Asphalt 0 ft / 0 m 443 ft / 135 m
36 148 ft / 45 m 7,877 ft / 2,401 m 355.00° 353.55° Asphalt 0 ft / 0 m 1,099 ft / 335 m

Approach Navaids

Runway Type Ident Frequency Range Bearing (true) Bearing (mag) Slope Elevation
36 Localiser DJ 109.50 MHz 18 nm / 33 km 354.99° 353.54° - 728 ft / 222 m (AMSL)
36 Glidescope DJ 109.50 MHz 10 nm / 19 km 355.00° 353.55° 3.00° 728 ft / 222 m (AMSL)

Popular Alternatives